sensor_id;sensor_type;location;lat;lon;timestamp;temperature;humidity
33645;DHT22;19986;48.190;16.366;2023-03-01T05:04:11;5.00;99.90
33645;DHT22;19986;48.190;16.366;2023-03-01T05:06:39;5.10;99.90
33645;DHT22;19986;48.190;16.366;2023-03-01T05:09:05;5.10;99.90
33645;DHT22;19986;48.190;16.366;2023-03-01T05:11:31;5.20;99.90
33645;DHT22;19986;48.190;16.366;2023-03-01T05:14:08;5.20;99.90
33645;DHT22;19986;48.190;16.366;2023-03-01T05:16:34;5.30;99.90
33645;DHT22;19986;48.190;16.366;2023-03-01T05:19:02;5.30;99.90
33645;DHT22;19986;48.190;16.366;2023-03-01T05:21:39;5.30;99.90
33645;DHT22;19986;48.190;16.366;2023-03-01T05:24:30;5.30;99.90
33645;DHT22;19986;48.190;16.366;2023-03-01T05:26:56;5.20;99.90
33645;DHT22;19986;48.190;16.366;2023-03-01T05:29:23;5.20;99.90
33645;DHT22;19986;48.190;16.366;2023-03-01T05:31:55;5.20;99.90
33645;DHT22;19986;48.190;16.366;2023-03-01T05:34:29;5.20;99.90
33645;DHT22;19986;48.190;16.366;2023-03-01T05:36:56;5.10;99.90
33645;DHT22;19986;48.190;16.366;2023-03-01T05:39:23;5.10;99.90
33645;DHT22;19986;48.190;16.366;2023-03-01T05:41:57;5.10;99.90
33645;DHT22;19986;48.190;16.366;2023-03-01T05:44:24;5.10;99.90
33645;DHT22;19986;48.190;16.366;2023-03-01T05:46:50;5.00;99.90
33645;DHT22;19986;48.190;16.366;2023-03-01T05:49:20;5.10;99.90
33645;DHT22;19986;48.190;16.366;2023-03-01T05:55:09;5.20;99.90
33645;DHT22;19986;48.190;16.366;2023-03-01T05:57:35;5.10;99.90
33645;DHT22;19986;48.190;16.366;2023-03-01T06:00:01;5.20;99.90
33645;DHT22;19986;48.190;16.366;2023-03-01T06:02:27;5.20;99.90
33645;DHT22;19986;48.190;16.366;2023-03-01T06:04:55;5.20;99.90
33645;DHT22;19986;48.190;16.366;2023-03-01T06:07:21;5.30;99.90
33645;DHT22;19986;48.190;16.366;2023-03-01T06:09:47;5.30;99.90
33645;DHT22;19986;48.190;16.366;2023-03-01T06:12:13;5.30;99.90
33645;DHT22;19986;48.190;16.366;2023-03-01T06:14:38;5.30;99.90
33645;DHT22;19986;48.190;16.366;2023-03-01T06:17:04;5.30;99.90
33645;DHT22;19986;48.190;16.366;2023-03-01T06:19:30;5.40;99.90
33645;DHT22;19986;48.190;16.366;2023-03-01T06:21:56;5.40;99.90
33645;DHT22;19986;48.190;16.366;2023-03-01T06:24:22;5.50;99.90
33645;DHT22;19986;48.190;16.366;2023-03-01T06:26:48;5.50;99.90
33645;DHT22;19986;48.190;16.366;2023-03-01T06:29:14;5.50;99.90
33645;DHT22;19986;48.190;16.366;2023-03-01T06:31:40;5.50;99.90
33645;DHT22;19986;48.190;16.366;2023-03-01T06:34:06;5.70;99.90
33645;DHT22;19986;48.190;16.366;2023-03-01T06:36:31;5.70;99.90
33645;DHT22;19986;48.190;16.366;2023-03-01T06:38:57;5.70;99.90
33645;DHT22;19986;48.190;16.366;2023-03-01T06:41:24;5.70;99.90
33645;DHT22;19986;48.190;16.366;2023-03-01T06:43:49;5.70;99.90
33645;DHT22;19986;48.190;16.366;2023-03-01T06:46:30;5.80;99.90
33645;DHT22;19986;48.190;16.366;2023-03-01T06:48:56;5.80;99.90
33645;DHT22;19986;48.190;16.366;2023-03-01T06:51:22;5.80;99.90
33645;DHT22;19986;48.190;16.366;2023-03-01T06:53:48;5.80;99.90
33645;DHT22;19986;48.190;16.366;2023-03-01T06:56:14;5.90;99.90
33645;DHT22;19986;48.190;16.366;2023-03-01T06:58:40;5.90;99.90
33645;DHT22;19986;48.190;16.366;2023-03-01T07:01:09;5.90;99.90
33645;DHT22;19986;48.190;16.366;2023-03-01T07:03:35;6.00;99.90
33645;DHT22;19986;48.190;16.366;2023-03-01T07:06:01;5.90;99.90
33645;DHT22;19986;48.190;16.366;2023-03-01T07:08:27;5.90;99.90
33645;DHT22;19986;48.190;16.366;2023-03-01T07:10:57;5.90;99.90
33645;DHT22;19986;48.190;16.366;2023-03-01T07:13:22;6.00;99.90
33645;DHT22;19986;48.190;16.366;2023-03-01T07:15:48;6.10;99.90
33645;DHT22;19986;48.190;16.366;2023-03-01T07:18:14;6.10;99.90
33645;DHT22;19986;48.190;16.366;2023-03-01T07:20:40;6.20;99.90
33645;DHT22;19986;48.190;16.366;2023-03-01T07:23:06;6.10;99.90
33645;DHT22;19986;48.190;16.366;2023-03-01T07:25:32;6.10;99.90
33645;DHT22;19986;48.190;16.366;2023-03-01T07:27:58;6.20;99.90
33645;DHT22;19986;48.190;16.366;2023-03-01T07:30:25;6.20;99.90
33645;DHT22;19986;48.190;16.366;2023-03-01T07:32:55;6.30;99.90
33645;DHT22;19986;48.190;16.366;2023-03-01T07:35:21;6.40;99.90
33645;DHT22;19986;48.190;16.366;2023-03-01T07:37:47;6.40;99.90
33645;DHT22;19986;48.190;16.366;2023-03-01T07:40:13;6.40;99.90
33645;DHT22;19986;48.190;16.366;2023-03-01T07:42:39;6.50;99.90
33645;DHT22;19986;48.190;16.366;2023-03-01T07:45:06;6.40;99.90
33645;DHT22;19986;48.190;16.366;2023-03-01T07:47:32;6.50;99.90
33645;DHT22;19986;48.190;16.366;2023-03-01T07:49:58;6.50;99.90
33645;DHT22;19986;48.190;16.366;2023-03-01T07:52:24;6.50;99.90
33645;DHT22;19986;48.190;16.366;2023-03-01T07:54:50;6.50;99.90
33645;DHT22;19986;48.190;16.366;2023-03-01T07:57:16;6.60;99.90
33645;DHT22;19986;48.190;16.366;2023-03-01T07:59:42;6.70;99.90
33645;DHT22;19986;48.190;16.366;2023-03-01T08:02:09;6.80;99.90
33645;DHT22;19986;48.190;16.366;2023-03-01T08:04:35;6.90;99.90
33645;DHT22;19986;48.190;16.366;2023-03-01T08:07:04;7.10;99.90
33645;DHT22;19986;48.190;16.366;2023-03-01T08:09:31;7.10;99.90
33645;DHT22;19986;48.190;16.366;2023-03-01T08:11:57;7.10;99.90
33645;DHT22;19986;48.190;16.366;2023-03-01T08:14:26;7.20;99.90
33645;DHT22;19986;48.190;16.366;2023-03-01T08:16:52;7.30;99.90
33645;DHT22;19986;48.190;16.366;2023-03-01T08:19:18;7.40;99.90
33645;DHT22;19986;48.190;16.366;2023-03-01T08:21:44;7.50;99.90
33645;DHT22;19986;48.190;16.366;2023-03-01T08:24:11;7.50;99.90
33645;DHT22;19986;48.190;16.366;2023-03-01T08:26:37;7.60;99.90
33645;DHT22;19986;48.190;16.366;2023-03-01T08:29:03;7.70;99.90
33645;DHT22;19986;48.190;16.366;2023-03-01T08:31:35;7.60;99.90
33645;DHT22;19986;48.190;16.366;2023-03-01T08:34:06;7.50;99.90
33645;DHT22;19986;48.190;16.366;2023-03-01T08:36:36;7.50;99.90
33645;DHT22;19986;48.190;16.366;2023-03-01T08:39:03;7.50;99.90
33645;DHT22;19986;48.190;16.366;2023-03-01T08:41:29;7.60;99.90
33645;DHT22;19986;48.190;16.366;2023-03-01T08:43:55;7.70;99.90
33645;DHT22;19986;48.190;16.366;2023-03-01T08:46:29;7.70;99.90
33645;DHT22;19986;48.190;16.366;2023-03-01T08:48:55;7.90;99.90
33645;DHT22;19986;48.190;16.366;2023-03-01T08:51:23;8.10;99.90
33645;DHT22;19986;48.190;16.366;2023-03-01T08:53:49;8.30;99.90
33645;DHT22;19986;48.190;16.366;2023-03-01T08:56:16;8.30;99.90
33645;DHT22;19986;48.190;16.366;2023-03-01T08:58:45;8.40;99.90
33645;DHT22;19986;48.190;16.366;2023-03-01T09:01:14;8.60;99.90
33645;DHT22;19986;48.190;16.366;2023-03-01T09:03:41;8.70;99.90
33645;DHT22;19986;48.190;16.366;2023-03-01T09:06:08;8.70;99.90
33645;DHT22;19986;48.190;16.366;2023-03-01T09:08:39;8.60;99.90
33645;DHT22;19986;48.190;16.366;2023-03-01T09:11:06;8.40;99.90
33645;DHT22;19986;48.190;16.366;2023-03-01T09:13:34;8.50;99.90
33645;DHT22;19986;48.190;16.366;2023-03-01T09:16:02;8.60;99.90
33645;DHT22;19986;48.190;16.366;2023-03-01T09:18:29;8.70;99.90
33645;DHT22;19986;48.190;16.366;2023-03-01T09:21:22;8.70;99.90
33645;DHT22;19986;48.190;16.366;2023-03-01T09:23:48;9.00;99.90
33645;DHT22;19986;48.190;16.366;2023-03-01T09:26:22;9.20;99.90
33645;DHT22;19986;48.190;16.366;2023-03-01T09:28:50;9.40;99.90
33645;DHT22;19986;48.190;16.366;2023-03-01T09:31:18;9.40;99.90
33645;DHT22;19986;48.190;16.366;2023-03-01T09:33:46;9.60;99.60
33645;DHT22;19986;48.190;16.366;2023-03-01T09:36:18;9.60;99.50
33645;DHT22;19986;48.190;16.366;2023-03-01T09:38:44;9.70;99.50
33645;DHT22;19986;48.190;16.366;2023-03-01T09:44:29;9.90;99.30
33645;DHT22;19986;48.190;16.366;2023-03-01T09:46:57;10.00;98.80
33645;DHT22;19986;48.190;16.366;2023-03-01T09:49:27;10.10;99.10
33645;DHT22;19986;48.190;16.366;2023-03-01T09:55:15;10.30;98.60
33645;DHT22;19986;48.190;16.366;2023-03-01T09:57:53;10.20;98.60
33645;DHT22;19986;48.190;16.366;2023-03-01T10:03:02;10.50;98.50
33645;DHT22;19986;48.190;16.366;2023-03-01T10:10:52;10.40;98.30
33645;DHT22;19986;48.190;16.366;2023-03-01T10:16:55;10.80;98.50
33645;DHT22;19986;48.190;16.366;2023-03-01T10:19:20;10.90;97.30
33645;DHT22;19986;48.190;16.366;2023-03-01T10:21:49;10.60;97.30
33645;DHT22;19986;48.190;16.366;2023-03-01T10:24:18;10.50;97.70
33645;DHT22;19986;48.190;16.366;2023-03-01T10:26:48;10.50;98.00
33645;DHT22;19986;48.190;16.366;2023-03-01T10:29:16;10.60;97.60
33645;DHT22;19986;48.190;16.366;2023-03-01T10:31:51;10.60;97.60
33645;DHT22;19986;48.190;16.366;2023-03-01T10:34:21;10.70;97.60
33645;DHT22;19986;48.190;16.366;2023-03-01T10:36:50;10.80;97.60
33645;DHT22;19986;48.190;16.366;2023-03-01T10:39:22;10.80;97.40
33645;DHT22;19986;48.190;16.366;2023-03-01T10:42:00;10.70;97.30
33645;DHT22;19986;48.190;16.366;2023-03-01T10:44:44;10.60;97.20
33645;DHT22;19986;48.190;16.366;2023-03-01T10:47:22;10.50;97.50
33645;DHT22;19986;48.190;16.366;2023-03-01T10:49:59;10.30;97.60
33645;DHT22;19986;48.190;16.366;2023-03-01T10:52:37;10.30;97.80
33645;DHT22;19986;48.190;16.366;2023-03-01T10:55:23;10.50;98.20
33645;DHT22;19986;48.190;16.366;2023-03-01T10:57:49;10.70;97.60
33645;DHT22;19986;48.190;16.366;2023-03-01T11:00:20;10.80;97.40
33645;DHT22;19986;48.190;16.366;2023-03-01T11:02:50;10.80;97.40
33645;DHT22;19986;48.190;16.366;2023-03-01T11:05:21;10.90;97.40
33645;DHT22;19986;48.190;16.366;2023-03-01T11:07:54;11.00;97.10
33645;DHT22;19986;48.190;16.366;2023-03-01T11:12:51;11.10;96.80
33645;DHT22;19986;48.190;16.366;2023-03-01T11:15:26;11.00;96.80
33645;DHT22;19986;48.190;16.366;2023-03-01T11:17:54;10.90;97.20
33645;DHT22;19986;48.190;16.366;2023-03-01T11:20:39;11.00;97.50
33645;DHT22;19986;48.190;16.366;2023-03-01T11:23:09;11.10;97.40
33645;DHT22;19986;48.190;16.366;2023-03-01T11:25:40;11.20;97.50
33645;DHT22;19986;48.190;16.366;2023-03-01T11:28:12;11.30;97.40
33645;DHT22;19986;48.190;16.366;2023-03-01T11:36:42;11.10;97.10
33645;DHT22;19986;48.190;16.366;2023-03-01T11:39:21;11.20;97.50
33645;DHT22;19986;48.190;16.366;2023-03-01T11:41:58;11.40;97.40
33645;DHT22;19986;48.190;16.366;2023-03-01T11:44:28;11.40;97.30
33645;DHT22;19986;48.190;16.366;2023-03-01T11:49:49;11.70;97.20
33645;DHT22;19986;48.190;16.366;2023-03-01T12:00:41;11.90;97.00
33645;DHT22;19986;48.190;16.366;2023-03-01T12:03:20;12.00;97.00
33645;DHT22;19986;48.190;16.366;2023-03-01T12:08:53;11.90;96.80
33645;DHT22;19986;48.190;16.366;2023-03-01T12:23:15;11.80;97.10
33645;DHT22;19986;48.190;16.366;2023-03-01T12:25:39;11.70;97.00
33645;DHT22;19986;48.190;16.366;2023-03-01T12:34:00;11.80;97.50
33645;DHT22;19986;48.190;16.366;2023-03-01T12:45:24;12.10;97.20
33645;DHT22;19986;48.190;16.366;2023-03-01T12:48:24;12.20;97.50
33645;DHT22;19986;48.190;16.366;2023-03-01T12:50:51;12.20;97.60
33645;DHT22;19986;48.190;16.366;2023-03-01T12:53:34;12.30;97.40
33645;DHT22;19986;48.190;16.366;2023-03-01T12:56:06;12.30;97.30
33645;DHT22;19986;48.190;16.366;2023-03-01T12:58:41;12.20;97.40
33645;DHT22;19986;48.190;16.366;2023-03-01T13:11:43;12.00;97.90
33645;DHT22;19986;48.190;16.366;2023-03-01T13:16:57;11.80;98.10
33645;DHT22;19986;48.190;16.366;2023-03-01T13:19:27;11.80;98.30
33645;DHT22;19986;48.190;16.366;2023-03-01T13:21:58;11.90;98.20
33645;DHT22;19986;48.190;16.366;2023-03-01T13:24:39;12.00;98.00
33645;DHT22;19986;48.190;16.366;2023-03-01T13:29:55;12.00;98.20
33645;DHT22;19986;48.190;16.366;2023-03-01T13:34:53;12.30;98.00
33645;DHT22;19986;48.190;16.366;2023-03-01T13:37:31;12.30;98.10
33645;DHT22;19986;48.190;16.366;2023-03-01T13:40:00;12.30;97.90
33645;DHT22;19986;48.190;16.366;2023-03-01T13:42:39;12.10;98.10
33645;DHT22;19986;48.190;16.366;2023-03-01T13:45:17;12.00;98.40
33645;DHT22;19986;48.190;16.366;2023-03-01T13:47:45;12.00;98.50
33645;DHT22;19986;48.190;16.366;2023-03-01T13:50:20;12.10;98.50
33645;DHT22;19986;48.190;16.366;2023-03-01T13:52:59;12.10;98.40
33645;DHT22;19986;48.190;16.366;2023-03-01T13:55:45;12.20;98.60
33645;DHT22;19986;48.190;16.366;2023-03-01T13:58:21;12.20;98.50
33645;DHT22;19986;48.190;16.366;2023-03-01T14:00:47;12.20;98.40
33645;DHT22;19986;48.190;16.366;2023-03-01T14:03:17;12.10;98.50
33645;DHT22;19986;48.190;16.366;2023-03-01T14:06:05;12.00;98.50
33645;DHT22;19986;48.190;16.366;2023-03-01T14:08:33;11.80;98.80
33645;DHT22;19986;48.190;16.366;2023-03-01T14:19:12;11.30;99.40
33645;DHT22;19986;48.190;16.366;2023-03-01T14:21:39;11.30;99.70
33645;DHT22;19986;48.190;16.366;2023-03-01T14:24:21;11.20;99.80
33645;DHT22;19986;48.190;16.366;2023-03-01T14:26:49;11.20;99.80
33645;DHT22;19986;48.190;16.366;2023-03-01T14:29:26;11.10;99.90
33645;DHT22;19986;48.190;16.366;2023-03-01T14:31:52;11.10;99.90
33645;DHT22;19986;48.190;16.366;2023-03-01T14:34:23;11.10;99.90
33645;DHT22;19986;48.190;16.366;2023-03-01T14:36:50;11.10;99.90
33645;DHT22;19986;48.190;16.366;2023-03-01T14:39:17;11.20;99.90
33645;DHT22;19986;48.190;16.366;2023-03-01T14:41:44;11.10;99.90
33645;DHT22;19986;48.190;16.366;2023-03-01T14:44:19;11.10;99.90
33645;DHT22;19986;48.190;16.366;2023-03-01T14:46:52;11.10;99.90
33645;DHT22;19986;48.190;16.366;2023-03-01T14:49:21;11.10;99.90
33645;DHT22;19986;48.190;16.366;2023-03-01T14:52:22;11.20;99.90
33645;DHT22;19986;48.190;16.366;2023-03-01T14:54:53;11.10;99.90
33645;DHT22;19986;48.190;16.366;2023-03-01T14:57:24;11.20;99.90
33645;DHT22;19986;48.190;16.366;2023-03-01T14:59:57;11.20;99.90
33645;DHT22;19986;48.190;16.366;2023-03-01T15:02:25;11.20;99.90
33645;DHT22;19986;48.190;16.366;2023-03-01T15:04:55;11.00;99.90
33645;DHT22;19986;48.190;16.366;2023-03-01T15:07:38;10.90;99.90
33645;DHT22;19986;48.190;16.366;2023-03-01T15:10:06;11.00;99.90
33645;DHT22;19986;48.190;16.366;2023-03-01T15:12:35;11.00;99.90
33645;DHT22;19986;48.190;16.366;2023-03-01T15:17:58;11.00;99.90
33645;DHT22;19986;48.190;16.366;2023-03-01T15:20:27;11.00;99.90
33645;DHT22;19986;48.190;16.366;2023-03-01T15:22:58;11.00;99.90
33645;DHT22;19986;48.190;16.366;2023-03-01T15:25:27;11.00;99.90
33645;DHT22;19986;48.190;16.366;2023-03-01T15:27:55;11.10;99.90
33645;DHT22;19986;48.190;16.366;2023-03-01T15:30:29;11.00;99.90
33645;DHT22;19986;48.190;16.366;2023-03-01T15:35:50;11.00;99.90
33645;DHT22;19986;48.190;16.366;2023-03-01T15:38:49;11.10;99.90
33645;DHT22;19986;48.190;16.366;2023-03-01T15:41:45;11.00;99.90
33645;DHT22;19986;48.190;16.366;2023-03-01T15:44:28;10.90;99.90
33645;DHT22;19986;48.190;16.366;2023-03-01T15:46:54;10.90;99.90
33645;DHT22;19986;48.190;16.366;2023-03-01T15:49:39;10.90;99.90
33645;DHT22;19986;48.190;16.366;2023-03-01T15:52:20;10.90;99.90
33645;DHT22;19986;48.190;16.366;2023-03-01T15:54:47;11.00;99.90
33645;DHT22;19986;48.190;16.366;2023-03-01T15:57:13;11.00;99.90
33645;DHT22;19986;48.190;16.366;2023-03-01T15:59:41;11.00;99.90
33645;DHT22;19986;48.190;16.366;2023-03-01T16:02:10;11.00;99.90
33645;DHT22;19986;48.190;16.366;2023-03-01T16:04:38;11.10;99.90
33645;DHT22;19986;48.190;16.366;2023-03-01T16:07:05;11.00;99.90
33645;DHT22;19986;48.190;16.366;2023-03-01T16:09:31;11.00;99.90
33645;DHT22;19986;48.190;16.366;2023-03-01T16:11:58;11.00;99.90
33645;DHT22;19986;48.190;16.366;2023-03-01T16:14:24;11.00;99.90
33645;DHT22;19986;48.190;16.366;2023-03-01T16:16:50;10.90;99.90
33645;DHT22;19986;48.190;16.366;2023-03-01T16:19:16;10.90;99.90
33645;DHT22;19986;48.190;16.366;2023-03-01T16:21:42;10.90;99.90
33645;DHT22;19986;48.190;16.366;2023-03-01T16:24:09;10.80;99.90
33645;DHT22;19986;48.190;16.366;2023-03-01T16:26:37;10.80;99.90
33645;DHT22;19986;48.190;16.366;2023-03-01T16:29:04;10.80;99.90
33645;DHT22;19986;48.190;16.366;2023-03-01T16:31:32;10.80;99.90
33645;DHT22;19986;48.190;16.366;2023-03-01T16:34:00;10.90;99.90
33645;DHT22;19986;48.190;16.366;2023-03-01T16:36:27;10.90;99.90
33645;DHT22;19986;48.190;16.366;2023-03-01T16:38:55;10.80;99.90
33645;DHT22;19986;48.190;16.366;2023-03-01T16:41:22;10.80;99.90
33645;DHT22;19986;48.190;16.366;2023-03-01T16:43:49;10.80;99.90
33645;DHT22;19986;48.190;16.366;2023-03-01T16:46:17;10.80;99.90
33645;DHT22;19986;48.190;16.366;2023-03-01T16:48:44;10.80;99.90
33645;DHT22;19986;48.190;16.366;2023-03-01T16:51:11;10.70;99.90
33645;DHT22;19986;48.190;16.366;2023-03-01T16:53:37;10.70;99.90
33645;DHT22;19986;48.190;16.366;2023-03-01T16:56:05;10.70;99.90
33645;DHT22;19986;48.190;16.366;2023-03-01T16:58:32;10.70;99.90
33645;DHT22;19986;48.190;16.366;2023-03-01T17:01:05;10.70;99.90
33645;DHT22;19986;48.190;16.366;2023-03-01T17:03:31;10.70;99.90
33645;DHT22;19986;48.190;16.366;2023-03-01T17:06:01;10.70;99.90
33645;DHT22;19986;48.190;16.366;2023-03-01T17:08:27;10.70;99.90
33645;DHT22;19986;48.190;16.366;2023-03-01T17:10:53;10.60;99.90
33645;DHT22;19986;48.190;16.366;2023-03-01T17:13:19;10.70;99.90
33645;DHT22;19986;48.190;16.366;2023-03-01T17:15:45;10.70;99.90
33645;DHT22;19986;48.190;16.366;2023-03-01T17:18:11;10.70;99.90
33645;DHT22;19986;48.190;16.366;2023-03-01T17:20:39;10.70;99.90
33645;DHT22;19986;48.190;16.366;2023-03-01T17:23:05;10.60;99.90
33645;DHT22;19986;48.190;16.366;2023-03-01T17:25:31;10.70;99.90
33645;DHT22;19986;48.190;16.366;2023-03-01T17:27:58;10.60;99.90
33645;DHT22;19986;48.190;16.366;2023-03-01T17:30:24;10.50;99.90
33645;DHT22;19986;48.190;16.366;2023-03-01T17:32:50;10.50;99.90
33645;DHT22;19986;48.190;16.366;2023-03-01T17:35:20;10.50;99.90
33645;DHT22;19986;48.190;16.366;2023-03-01T17:37:46;10.60;99.90
33645;DHT22;19986;48.190;16.366;2023-03-01T17:40:12;10.50;99.90
33645;DHT22;19986;48.190;16.366;2023-03-01T17:42:42;10.50;99.90
33645;DHT22;19986;48.190;16.366;2023-03-01T17:45:08;10.50;99.90
33645;DHT22;19986;48.190;16.366;2023-03-01T17:47:34;10.60;99.90
33645;DHT22;19986;48.190;16.366;2023-03-01T17:50:00;10.60;99.90
33645;DHT22;19986;48.190;16.366;2023-03-01T17:52:28;10.60;99.90
33645;DHT22;19986;48.190;16.366;2023-03-01T17:54:54;10.50;99.90
33645;DHT22;19986;48.190;16.366;2023-03-01T17:57:20;10.50;99.90
33645;DHT22;19986;48.190;16.366;2023-03-01T17:59:46;10.40;99.90
33645;DHT22;19986;48.190;16.366;2023-03-01T18:02:16;10.40;99.90
33645;DHT22;19986;48.190;16.366;2023-03-01T18:04:43;10.30;99.90
33645;DHT22;19986;48.190;16.366;2023-03-01T18:07:10;10.30;99.90
33645;DHT22;19986;48.190;16.366;2023-03-01T18:09:36;10.30;99.90
33645;DHT22;19986;48.190;16.366;2023-03-01T18:12:03;10.30;99.90
33645;DHT22;19986;48.190;16.366;2023-03-01T18:14:29;10.30;99.90
33645;DHT22;19986;48.190;16.366;2023-03-01T18:16:59;10.20;99.90
33645;DHT22;19986;48.190;16.366;2023-03-01T18:19:32;10.20;99.90
33645;DHT22;19986;48.190;16.366;2023-03-01T18:21:58;10.20;99.90
33645;DHT22;19986;48.190;16.366;2023-03-01T18:24:25;10.10;99.90
33645;DHT22;19986;48.190;16.366;2023-03-01T18:26:54;10.10;99.90
33645;DHT22;19986;48.190;16.366;2023-03-01T18:29:20;10.10;99.90
33645;DHT22;19986;48.190;16.366;2023-03-01T18:31:46;10.10;99.90
33645;DHT22;19986;48.190;16.366;2023-03-01T18:34:13;10.10;99.90
33645;DHT22;19986;48.190;16.366;2023-03-01T18:36:40;10.10;99.90
33645;DHT22;19986;48.190;16.366;2023-03-01T18:39:07;10.10;99.90
33645;DHT22;19986;48.190;16.366;2023-03-01T18:41:34;10.00;99.90
33645;DHT22;19986;48.190;16.366;2023-03-01T18:44:03;9.90;99.90
33645;DHT22;19986;48.190;16.366;2023-03-01T18:46:30;9.90;99.90
33645;DHT22;19986;48.190;16.366;2023-03-01T18:48:57;9.90;99.90
33645;DHT22;19986;48.190;16.366;2023-03-01T18:51:27;9.80;99.90
33645;DHT22;19986;48.190;16.366;2023-03-01T18:53:56;9.80;99.90
33645;DHT22;19986;48.190;16.366;2023-03-01T18:56:24;9.80;99.90
33645;DHT22;19986;48.190;16.366;2023-03-01T18:58:51;9.80;99.90
33645;DHT22;19986;48.190;16.366;2023-03-01T19:01:21;9.80;99.90
33645;DHT22;19986;48.190;16.366;2023-03-01T19:03:48;9.80;99.90
33645;DHT22;19986;48.190;16.366;2023-03-01T19:06:14;9.70;99.90
33645;DHT22;19986;48.190;16.366;2023-03-01T19:08:41;9.70;99.90
33645;DHT22;19986;48.190;16.366;2023-03-01T19:11:09;9.70;99.90
33645;DHT22;19986;48.190;16.366;2023-03-01T19:13:37;9.60;99.90
33645;DHT22;19986;48.190;16.366;2023-03-01T19:18:36;9.50;99.90
33645;DHT22;19986;48.190;16.366;2023-03-01T19:21:04;9.50;99.90
33645;DHT22;19986;48.190;16.366;2023-03-01T19:23:32;9.60;99.90
33645;DHT22;19986;48.190;16.366;2023-03-01T19:26:03;9.50;99.90
33645;DHT22;19986;48.190;16.366;2023-03-01T19:28:29;9.50;99.90
33645;DHT22;19986;48.190;16.366;2023-03-01T19:31:01;9.50;99.90
33645;DHT22;19986;48.190;16.366;2023-03-01T19:33:29;9.50;99.90
33645;DHT22;19986;48.190;16.366;2023-03-01T19:35:56;9.40;99.90
33645;DHT22;19986;48.190;16.366;2023-03-01T19:38:23;9.40;99.90
33645;DHT22;19986;48.190;16.366;2023-03-01T19:40:50;9.30;99.90
33645;DHT22;19986;48.190;16.366;2023-03-01T19:43:16;9.30;99.90
33645;DHT22;19986;48.190;16.366;2023-03-01T19:45:43;9.30;99.90
33645;DHT22;19986;48.190;16.366;2023-03-01T19:48:11;9.30;99.90
33645;DHT22;19986;48.190;16.366;2023-03-01T19:50:38;9.30;99.90
33645;DHT22;19986;48.190;16.366;2023-03-01T19:53:04;9.30;99.90
33645;DHT22;19986;48.190;16.366;2023-03-01T19:55:34;9.30;99.90
33645;DHT22;19986;48.190;16.366;2023-03-01T19:58:00;9.20;99.90
33645;DHT22;19986;48.190;16.366;2023-03-01T20:00:27;9.20;99.90
33645;DHT22;19986;48.190;16.366;2023-03-01T20:02:53;9.20;99.90
33645;DHT22;19986;48.190;16.366;2023-03-01T20:05:21;9.20;99.90
33645;DHT22;19986;48.190;16.366;2023-03-01T20:07:48;9.20;99.90
33645;DHT22;19986;48.190;16.366;2023-03-01T20:10:16;9.10;99.90
33645;DHT22;19986;48.190;16.366;2023-03-01T20:12:43;9.20;99.90
33645;DHT22;19986;48.190;16.366;2023-03-01T20:15:09;9.10;99.90
33645;DHT22;19986;48.190;16.366;2023-03-01T20:17:37;9.20;99.90
33645;DHT22;19986;48.190;16.366;2023-03-01T20:20:04;9.20;99.90
33645;DHT22;19986;48.190;16.366;2023-03-01T20:22:30;9.20;99.90
33645;DHT22;19986;48.190;16.366;2023-03-01T20:24:58;9.10;99.90
33645;DHT22;19986;48.190;16.366;2023-03-01T20:27:24;9.10;99.90
33645;DHT22;19986;48.190;16.366;2023-03-01T20:29:51;9.20;99.90
33645;DHT22;19986;48.190;16.366;2023-03-01T20:32:20;9.10;99.90
33645;DHT22;19986;48.190;16.366;2023-03-01T20:34:47;9.10;99.90
33645;DHT22;19986;48.190;16.366;2023-03-01T20:37:14;9.10;99.90
33645;DHT22;19986;48.190;16.366;2023-03-01T20:39:41;9.10;99.90
33645;DHT22;19986;48.190;16.366;2023-03-01T20:42:07;9.00;99.90
33645;DHT22;19986;48.190;16.366;2023-03-01T20:44:33;9.00;99.90
33645;DHT22;19986;48.190;16.366;2023-03-01T20:47:00;9.00;99.90
33645;DHT22;19986;48.190;16.366;2023-03-01T20:49:26;9.10;99.90
33645;DHT22;19986;48.190;16.366;2023-03-01T20:51:52;9.10;99.90
33645;DHT22;19986;48.190;16.366;2023-03-01T20:54:18;9.10;99.90
33645;DHT22;19986;48.190;16.366;2023-03-01T20:56:46;9.10;99.90
